createdAt,value
2019-02-22T00:05:54.024Z,8.60
2019-02-22T00:11:58.247Z,8.70
2019-02-22T00:18:02.436Z,8.70
2019-02-22T00:24:06.902Z,8.30
2019-02-22T00:30:11.110Z,8.20
2019-02-22T00:36:15.436Z,8.20
2019-02-22T00:42:19.637Z,8.20
2019-02-22T00:48:24.014Z,8.00
2019-02-22T00:54:28.212Z,8.00
2019-02-22T01:00:37.708Z,8.00
2019-02-22T01:06:42.144Z,8.10
2019-02-22T01:12:46.354Z,8.10
2019-02-22T01:18:50.712Z,8.00
2019-02-22T01:24:55.215Z,8.00
2019-02-22T01:30:59.506Z,8.00
2019-02-22T01:37:03.776Z,8.00
2019-02-22T01:43:08.482Z,8.00
2019-02-22T01:49:12.702Z,7.90
2019-02-22T01:55:16.903Z,7.90
2019-02-22T02:01:21.338Z,7.90
2019-02-22T02:07:25.552Z,7.90
2019-02-22T02:13:29.793Z,7.90
2019-02-22T02:19:34.231Z,7.90
2019-02-22T02:25:38.505Z,7.90
2019-02-22T02:31:42.811Z,7.90
2019-02-22T02:37:48.595Z,7.90
2019-02-22T02:43:54.745Z,7.90
2019-02-22T02:50:01.108Z,7.90
2019-02-22T02:56:06.608Z,7.90
2019-02-22T03:02:18.206Z,7.90
2019-02-22T03:08:25.947Z,7.90
2019-02-22T03:14:29.945Z,7.90
2019-02-22T03:20:34.257Z,7.90
2019-02-22T03:26:41.315Z,7.90
2019-02-22T03:32:45.654Z,7.90
2019-02-22T03:38:50.011Z,7.80
2019-02-22T03:44:54.283Z,7.90
2019-02-22T03:50:59.653Z,7.80
2019-02-22T03:57:06.121Z,7.90
2019-02-22T04:03:10.064Z,7.80
2019-02-22T04:09:14.246Z,7.80
2019-02-22T04:15:18.749Z,7.80
2019-02-22T04:21:23.632Z,7.80
2019-02-22T04:27:27.900Z,7.70
2019-02-22T04:33:32.095Z,7.70
2019-02-22T04:39:36.295Z,7.80
2019-02-22T04:45:40.542Z,7.80
2019-02-22T04:51:46.382Z,7.80
2019-02-22T04:57:53.396Z,7.70
2019-02-22T05:04:00.821Z,7.70
2019-02-22T05:10:05.298Z,7.70
2019-02-22T05:16:09.553Z,7.70
2019-02-22T05:22:14.003Z,7.70
2019-02-22T05:28:18.217Z,7.70
2019-02-22T05:34:22.588Z,7.70
2019-02-22T05:40:26.874Z,7.70
2019-02-22T05:46:31.122Z,7.70
2019-02-22T05:52:35.339Z,7.70
2019-02-22T05:58:39.626Z,7.70
2019-02-22T06:04:45.931Z,7.70
2019-02-22T06:10:50.201Z,7.60
2019-02-22T06:16:54.447Z,7.60
2019-02-22T06:22:58.859Z,7.60
2019-02-22T06:29:03.171Z,7.60
2019-02-22T06:35:08.970Z,7.60
2019-02-22T06:41:13.561Z,7.60
2019-02-22T06:47:17.875Z,7.60
2019-02-22T06:53:22.100Z,7.50
2019-02-22T06:59:26.635Z,7.60
2019-02-22T07:05:31.048Z,7.60
2019-02-22T07:11:48.493Z,7.60
2019-02-22T07:17:52.679Z,7.60
2019-02-22T07:23:56.928Z,7.60
2019-02-22T07:30:01.204Z,7.60
2019-02-22T07:36:05.658Z,7.60
2019-02-22T07:42:09.846Z,7.70
2019-02-22T07:48:14.089Z,7.60
2019-02-22T07:54:18.340Z,7.50
2019-02-22T08:00:22.729Z,7.50
2019-02-22T08:06:26.973Z,7.50
2019-02-22T08:12:31.383Z,7.60
2019-02-22T08:18:35.723Z,7.50
2019-02-22T08:24:40.033Z,7.60
2019-02-22T08:30:44.298Z,7.60
2019-02-22T08:36:48.580Z,7.60
2019-02-22T08:42:52.774Z,7.70
2019-02-22T08:48:56.996Z,7.60
2019-02-22T08:55:01.378Z,7.70
2019-02-22T09:01:05.702Z,7.80
2019-02-22T09:07:09.974Z,7.90
2019-02-22T09:13:14.196Z,7.90
2019-02-22T09:19:18.518Z,7.90
2019-02-22T09:25:22.820Z,7.80
2019-02-22T09:31:27.037Z,7.80
2019-02-22T09:37:31.445Z,7.90
2019-02-22T09:43:35.631Z,7.90
2019-02-22T09:49:39.924Z,8.00
2019-02-22T09:55:44.137Z,8.00
2019-02-22T10:01:48.479Z,8.00
2019-02-22T10:07:52.823Z,8.10
2019-02-22T10:14:06.256Z,8.00
2019-02-22T10:20:03.209Z,8.30
2019-02-22T10:26:07.503Z,8.20
2019-02-22T10:32:11.791Z,8.40
2019-02-22T10:38:16.062Z,8.60
2019-02-22T10:44:20.265Z,8.70
2019-02-22T10:50:24.456Z,8.90
2019-02-22T10:56:28.753Z,9.40
2019-02-22T11:02:33.094Z,9.50
2019-02-22T11:08:37.384Z,9.50
2019-02-22T11:14:41.614Z,9.50
2019-02-22T11:20:45.900Z,9.70
2019-02-22T11:26:50.182Z,9.70
2019-02-22T11:32:54.406Z,9.80
2019-02-22T11:38:58.711Z,10.00
2019-02-22T11:45:03.132Z,10.20
2019-02-22T11:51:07.500Z,10.20
2019-02-22T11:57:12.154Z,10.30
2019-02-22T12:03:24.510Z,10.60
2019-02-22T12:09:22.442Z,10.70
2019-02-22T12:15:26.656Z,10.70
2019-02-22T12:21:31.072Z,10.70
2019-02-22T12:27:35.284Z,10.80
2019-02-22T12:33:39.553Z,10.90
2019-02-22T12:39:43.942Z,11.10
2019-02-22T12:45:48.174Z,11.20
2019-02-22T12:51:52.398Z,11.30
2019-02-22T12:57:56.824Z,11.30
2019-02-22T13:04:01.127Z,11.50
2019-02-22T13:10:05.691Z,11.60
2019-02-22T13:16:09.935Z,11.60
2019-02-22T13:22:14.236Z,11.80
2019-02-22T13:28:18.543Z,11.70
2019-02-22T13:34:22.748Z,11.80
2019-02-22T13:40:26.993Z,12.00
2019-02-22T13:46:31.199Z,12.10
2019-02-22T13:52:35.707Z,12.00
2019-02-22T13:58:39.935Z,12.10
2019-02-22T14:04:44.227Z,12.50
2019-02-22T14:10:48.515Z,12.30
2019-02-22T14:16:52.891Z,12.50
2019-02-22T14:22:57.215Z,12.30
2019-02-22T14:29:01.553Z,12.50
2019-02-22T14:35:08.897Z,12.50
2019-02-22T14:41:13.243Z,12.60
2019-02-22T14:47:17.667Z,12.60
2019-02-22T14:53:21.871Z,12.50
2019-02-22T14:59:26.191Z,12.60
2019-02-22T15:05:31.019Z,12.80
2019-02-22T15:11:35.249Z,12.80
2019-02-22T15:17:45.313Z,12.80
2019-02-22T15:23:49.663Z,12.80
2019-02-22T15:29:53.962Z,12.90
2019-02-22T15:35:58.212Z,12.80
2019-02-22T15:42:02.745Z,12.70
2019-02-22T15:48:07.272Z,12.80
2019-02-22T15:54:11.890Z,12.70
2019-02-22T16:00:19.882Z,12.60
2019-02-22T16:06:24.366Z,12.70
2019-02-22T16:12:28.590Z,12.60
2019-02-22T16:18:32.904Z,12.60
2019-02-22T16:24:37.372Z,12.50
2019-02-22T16:30:41.822Z,12.40
2019-02-22T16:36:46.236Z,12.30
2019-02-22T16:42:50.577Z,12.20
2019-02-22T16:48:54.860Z,12.10
2019-02-22T16:54:59.075Z,12.00
2019-02-22T17:01:03.384Z,11.90
2019-02-22T17:07:07.844Z,11.80
2019-02-22T17:13:12.095Z,11.60
2019-02-22T17:19:16.381Z,11.60
2019-02-22T17:25:20.599Z,11.50
2019-02-22T17:31:24.955Z,11.50
2019-02-22T17:37:29.175Z,11.40
2019-02-22T17:43:33.390Z,11.40
2019-02-22T17:49:37.634Z,11.40
2019-02-22T17:55:41.965Z,11.30
2019-02-22T18:01:46.194Z,11.30
2019-02-22T18:07:50.621Z,11.30
2019-02-22T18:13:54.917Z,11.30
2019-02-22T18:19:59.195Z,11.40
2019-02-22T18:26:03.577Z,11.40
2019-02-22T18:32:08.141Z,11.30
2019-02-22T18:38:15.002Z,11.40
2019-02-22T18:44:19.562Z,11.30
2019-02-22T18:50:23.824Z,11.30
2019-02-22T18:56:28.076Z,11.30
2019-02-22T19:02:32.296Z,11.20
2019-02-22T19:08:36.848Z,11.10
2019-02-22T19:14:41.072Z,10.90
2019-02-22T19:20:45.303Z,10.70
2019-02-22T19:26:49.548Z,10.50
2019-02-22T19:32:53.820Z,10.30
2019-02-22T19:38:58.028Z,10.20
2019-02-22T19:45:02.298Z,10.10
2019-02-22T19:51:06.505Z,10.00
2019-02-22T19:57:10.828Z,10.00
2019-02-22T20:03:15.065Z,9.90
2019-02-22T20:09:19.411Z,9.80
2019-02-22T20:15:23.706Z,9.70
2019-02-22T20:21:28.003Z,9.70
2019-02-22T20:27:32.198Z,9.60
2019-02-22T20:33:36.464Z,9.50
2019-02-22T20:39:40.719Z,9.50
2019-02-22T20:45:45.105Z,9.50
2019-02-22T20:51:49.758Z,9.40
2019-02-22T20:57:53.984Z,9.30
2019-02-22T21:03:58.317Z,9.20
2019-02-22T21:10:02.629Z,9.20
2019-02-22T21:16:06.914Z,9.10
2019-02-22T21:22:11.225Z,9.10
2019-02-22T21:28:15.475Z,9.20
2019-02-22T21:34:19.721Z,9.10
2019-02-22T21:40:24.017Z,9.00
2019-02-22T21:46:28.930Z,9.00
2019-02-22T21:52:33.206Z,9.00
2019-02-22T21:58:37.729Z,8.90
2019-02-22T22:04:42.450Z,8.80
2019-02-22T22:10:46.791Z,8.70
2019-02-22T22:16:51.141Z,8.70
2019-02-22T22:22:55.423Z,8.70
2019-02-22T22:28:59.729Z,8.60
2019-02-22T22:35:04.047Z,8.60
2019-02-22T22:41:08.417Z,8.50
2019-02-22T22:47:12.733Z,8.50
2019-02-22T22:53:16.938Z,8.50
2019-02-22T22:59:21.302Z,8.30
2019-02-22T23:05:25.632Z,8.30
2019-02-22T23:11:29.960Z,8.40
2019-02-22T23:17:34.374Z,8.40
2019-02-22T23:23:38.572Z,8.50
2019-02-22T23:29:42.974Z,8.50
2019-02-22T23:35:47.186Z,8.50
2019-02-22T23:41:51.528Z,8.60
2019-02-22T23:47:55.819Z,8.60
2019-02-22T23:54:00.214Z,8.70
